createdAt,value
2022-09-20T00:00:00.278Z,102010
2022-09-20T00:01:07.603Z,102010
2022-09-20T00:02:00.138Z,102010
2022-09-20T00:03:00.140Z,102010
2022-09-20T00:04:01.125Z,102010
2022-09-20T00:05:00.253Z,102010
2022-09-20T00:06:00.947Z,102010
2022-09-20T00:07:00.145Z,102000
2022-09-20T00:08:00.799Z,102000
2022-09-20T00:09:00.167Z,102000
2022-09-20T00:10:00.179Z,102000
2022-09-20T00:11:01.176Z,102000
2022-09-20T00:12:00.261Z,102000
2022-09-20T00:13:00.262Z,102000
2022-09-20T00:14:00.892Z,102000
2022-09-20T00:15:00.151Z,102000
2022-09-20T00:16:03.418Z,102000
2022-09-20T00:17:00.290Z,102010
2022-09-20T00:18:00.189Z,102010
2022-09-20T00:19:01.117Z,102010
2022-09-20T00:20:00.265Z,102010
2022-09-20T00:21:00.170Z,102010
2022-09-20T00:22:00.152Z,102010
2022-09-20T00:23:00.137Z,102010
2022-09-20T00:24:00.246Z,102010
2022-09-20T00:25:00.152Z,102010
2022-09-20T00:26:01.265Z,102010
2022-09-20T00:27:00.152Z,102010
2022-09-20T00:28:00.257Z,102010
2022-09-20T00:29:00.176Z,102010
2022-09-20T00:30:00.164Z,102010
2022-09-20T00:31:00.284Z,102010
2022-09-20T00:32:00.293Z,102010
2022-09-20T00:33:00.185Z,102020
2022-09-20T00:34:00.151Z,102020
2022-09-20T00:35:00.151Z,102010
2022-09-20T00:36:00.228Z,102010
2022-09-20T00:37:00.146Z,102020
2022-09-20T00:38:00.149Z,102020
2022-09-20T00:39:01.121Z,102020
2022-09-20T00:40:00.927Z,102020
2022-09-20T00:41:00.138Z,102020
2022-09-20T00:42:00.148Z,102020
2022-09-20T00:43:00.184Z,102020
2022-09-20T00:44:00.276Z,102020
2022-09-20T00:45:00.143Z,102020
2022-09-20T00:46:01.526Z,102020
2022-09-20T00:47:00.318Z,102020
2022-09-20T00:48:00.136Z,102020
2022-09-20T00:49:04.140Z,102020
2022-09-20T00:50:10.091Z,102020
2022-09-20T00:51:06.712Z,102020
2022-09-20T00:52:00.967Z,102020
2022-09-20T00:53:05.025Z,102020
2022-09-20T00:54:02.490Z,102020
2022-09-20T00:55:02.349Z,102020
2022-09-20T00:56:02.843Z,102020
2022-09-20T00:57:00.386Z,102020
2022-09-20T00:58:00.342Z,102020
2022-09-20T00:59:03.422Z,102020
2022-09-20T01:00:00.956Z,102020
2022-09-20T01:01:00.246Z,102020
2022-09-20T01:02:01.234Z,102020
2022-09-20T01:03:02.641Z,102020
2022-09-20T01:04:00.327Z,102020
2022-09-20T01:05:00.547Z,102020
2022-09-20T01:06:01.710Z,102020
2022-09-20T01:07:01.772Z,102020
2022-09-20T01:08:00.643Z,102020
2022-09-20T01:09:01.992Z,102020
2022-09-20T01:10:00.455Z,102020
2022-09-20T01:11:00.823Z,102020
2022-09-20T01:12:02.273Z,102020
2022-09-20T01:13:00.188Z,102020
2022-09-20T01:14:00.226Z,102020
2022-09-20T01:15:04.594Z,102020
2022-09-20T01:16:01.897Z,102020
2022-09-20T01:17:03.179Z,102030
2022-09-20T01:18:01.793Z,102030
2022-09-20T01:19:03.071Z,102020
2022-09-20T01:20:01.170Z,102020
2022-09-20T01:21:00.957Z,102020
2022-09-20T01:22:03.136Z,102020
2022-09-20T01:23:10.105Z,102030
2022-09-20T01:24:06.546Z,102030
2022-09-20T01:25:03.419Z,102020
2022-09-20T01:26:00.147Z,102020
2022-09-20T01:27:08.988Z,102020
2022-09-20T01:28:00.259Z,102020
2022-09-20T01:29:08.019Z,102020
2022-09-20T01:30:08.444Z,102020
2022-09-20T01:31:10.107Z,102020
2022-09-20T01:32:01.904Z,102020
2022-09-20T01:33:10.094Z,102020
2022-09-20T01:34:00.138Z,102020
2022-09-20T01:35:00.203Z,102010
2022-09-20T01:36:01.538Z,102010
2022-09-20T01:37:01.138Z,102010
2022-09-20T01:38:01.156Z,102010
2022-09-20T01:39:10.085Z,102010
2022-09-20T01:40:10.178Z,102010
2022-09-20T01:41:08.697Z,102020
2022-09-20T01:42:03.862Z,102020
2022-09-20T01:43:10.090Z,102010
2022-09-20T01:44:10.093Z,102010
2022-09-20T01:45:10.118Z,102020
2022-09-20T01:46:06.155Z,102020
2022-09-20T01:47:08.398Z,102020
2022-09-20T01:48:06.819Z,102020
2022-09-20T01:49:10.086Z,102020
2022-09-20T01:50:05.992Z,102020
2022-09-20T01:51:01.157Z,102010
2022-09-20T01:52:10.092Z,102010
2022-09-20T01:53:10.092Z,102010
2022-09-20T01:54:00.130Z,102010
2022-09-20T01:55:08.715Z,102020
2022-09-20T01:56:08.391Z,102020
2022-09-20T01:57:10.087Z,102020
2022-09-20T01:58:10.087Z,102020
2022-09-20T01:59:23.265Z,102020
2022-09-20T02:00:10.090Z,102020
2022-09-20T02:01:01.190Z,102020
2022-09-20T02:02:09.118Z,102020
2022-09-20T02:03:08.076Z,102020
2022-09-20T02:04:01.141Z,102020
2022-09-20T02:05:03.422Z,102020
2022-09-20T02:06:00.134Z,102020
2022-09-20T02:07:09.956Z,102020
2022-09-20T02:08:10.088Z,102020
2022-09-20T02:09:10.089Z,102030
2022-09-20T02:10:10.089Z,102030
2022-09-20T02:11:10.089Z,102030
2022-09-20T02:12:10.092Z,102030
2022-09-20T02:13:02.936Z,102030
2022-09-20T02:14:10.090Z,102030
2022-09-20T02:15:10.105Z,102030
2022-09-20T02:16:07.211Z,102030
2022-09-20T02:17:10.090Z,102020
2022-09-20T02:18:06.373Z,102020
2022-09-20T02:19:10.085Z,102020
2022-09-20T02:20:06.709Z,102020
2022-09-20T02:21:10.087Z,102020
2022-09-20T02:22:03.386Z,102020
2022-09-20T02:23:10.138Z,102020
2022-09-20T02:24:09.802Z,102020
2022-09-20T02:25:10.095Z,102010
2022-09-20T02:26:10.085Z,102010
2022-09-20T02:27:07.613Z,102010
2022-09-20T02:28:10.097Z,102010
2022-09-20T02:29:10.088Z,102010
2022-09-20T02:30:03.386Z,102010
2022-09-20T02:31:07.912Z,102010
2022-09-20T02:32:10.084Z,102010
2022-09-20T02:33:07.540Z,102010
2022-09-20T02:34:00.127Z,102010
2022-09-20T02:35:10.094Z,102000
2022-09-20T02:36:01.133Z,102000
2022-09-20T02:37:10.090Z,102000
2022-09-20T02:38:10.090Z,102000
2022-09-20T02:39:10.094Z,102000
2022-09-20T02:40:10.154Z,102000
2022-09-20T02:41:01.133Z,102000
2022-09-20T02:42:10.089Z,102000
2022-09-20T02:43:05.210Z,102000
2022-09-20T02:44:08.076Z,102000
2022-09-20T02:45:08.098Z,102000
2022-09-20T02:46:10.196Z,102000
2022-09-20T02:47:08.490Z,102000
2022-09-20T02:48:02.815Z,102000
2022-09-20T02:49:09.851Z,102000
2022-09-20T02:50:03.399Z,102000
2022-09-20T02:51:07.725Z,102000
2022-09-20T02:52:06.868Z,102000
2022-09-20T02:53:10.087Z,102000
2022-09-20T02:54:10.090Z,102000
2022-09-20T02:55:00.139Z,102010
2022-09-20T02:56:10.097Z,102010
2022-09-20T02:57:05.726Z,102010
2022-09-20T02:58:00.133Z,102010
2022-09-20T02:59:04.175Z,102010
2022-09-20T03:00:03.017Z,102010
2022-09-20T03:01:06.655Z,102020
2022-09-20T03:02:06.346Z,102020
2022-09-20T03:03:10.091Z,102020
2022-09-20T03:04:10.090Z,102020
2022-09-20T03:05:10.089Z,102020
2022-09-20T03:06:06.025Z,102020
2022-09-20T03:07:07.213Z,102020
2022-09-20T03:08:10.089Z,102020
2022-09-20T03:09:05.858Z,102020
2022-09-20T03:10:01.145Z,102020
2022-09-20T03:11:07.857Z,102020
2022-09-20T03:12:10.090Z,102020
2022-09-20T03:13:10.086Z,102020
2022-09-20T03:14:10.085Z,102020
2022-09-20T03:15:10.099Z,102010
2022-09-20T03:16:06.535Z,102010
2022-09-20T03:17:10.171Z,102010
2022-09-20T03:18:00.127Z,102010
2022-09-20T03:19:10.087Z,102010
2022-09-20T03:20:01.132Z,102010
2022-09-20T03:21:10.088Z,102010
2022-09-20T03:22:10.087Z,102010
2022-09-20T03:23:10.083Z,102010
2022-09-20T03:24:01.144Z,102010
2022-09-20T03:25:00.161Z,102010
2022-09-20T03:26:07.582Z,102010
2022-09-20T03:27:06.855Z,102010
2022-09-20T03:28:01.136Z,102010
2022-09-20T03:29:01.135Z,102010
2022-09-20T03:30:10.092Z,102010
2022-09-20T03:31:01.137Z,102010
2022-09-20T03:32:10.135Z,102010
2022-09-20T03:33:08.847Z,102010
2022-09-20T03:34:03.377Z,102010
2022-09-20T03:35:05.506Z,102010
2022-09-20T03:36:01.137Z,102010
2022-09-20T03:37:01.138Z,102010
2022-09-20T03:38:01.141Z,102010
2022-09-20T03:39:06.801Z,102010
2022-09-20T03:40:10.178Z,102010
2022-09-20T03:41:01.131Z,102010
2022-09-20T03:42:10.087Z,102010
2022-09-20T03:43:10.092Z,102010
2022-09-20T03:44:10.092Z,102010
2022-09-20T03:45:10.096Z,102010
2022-09-20T03:46:01.171Z,102010
2022-09-20T03:47:07.790Z,102010
2022-09-20T03:48:03.458Z,102010
2022-09-20T03:49:01.144Z,102010
2022-09-20T03:50:00.158Z,102010
2022-09-20T03:51:08.615Z,102010
2022-09-20T03:52:10.096Z,102010
2022-09-20T03:53:10.085Z,102010
2022-09-20T03:54:03.384Z,102010
2022-09-20T03:55:03.390Z,102010
2022-09-20T03:56:10.086Z,102010
2022-09-20T03:57:07.420Z,102010
2022-09-20T03:58:01.139Z,102010
2022-09-20T03:59:06.986Z,102010
2022-09-20T04:00:01.131Z,102010
2022-09-20T04:01:00.244Z,102010
2022-09-20T04:02:00.248Z,102010
2022-09-20T04:03:10.089Z,102010
2022-09-20T04:04:10.607Z,102010
2022-09-20T04:05:04.107Z,102010
2022-09-20T04:06:08.395Z,102010
2022-09-20T04:07:08.295Z,102020
2022-09-20T04:08:10.084Z,102020
2022-09-20T04:09:10.088Z,102020
2022-09-20T04:10:10.093Z,102020
2022-09-20T04:11:10.085Z,102020
2022-09-20T04:12:06.743Z,102020
2022-09-20T04:13:10.092Z,102020
2022-09-20T04:14:11.508Z,102020
2022-09-20T04:15:10.088Z,102010
2022-09-20T04:16:03.481Z,102010
2022-09-20T04:17:10.085Z,102010
2022-09-20T04:18:04.598Z,102010
2022-09-20T04:19:10.088Z,102010
2022-09-20T04:20:05.869Z,102010
2022-09-20T04:21:09.710Z,102020
2022-09-20T04:22:00.667Z,102020
2022-09-20T04:23:03.354Z,102010
2022-09-20T04:24:00.130Z,102010
2022-09-20T04:25:10.094Z,102010
2022-09-20T04:26:00.554Z,102010
2022-09-20T04:27:08.554Z,102010
2022-09-20T04:28:05.217Z,102010
2022-09-20T04:29:10.085Z,102010
2022-09-20T04:30:03.664Z,102010
2022-09-20T04:31:04.712Z,102010
2022-09-20T04:32:00.216Z,102010
2022-09-20T04:33:10.088Z,102010
2022-09-20T04:34:01.040Z,102010
2022-09-20T04:35:01.157Z,102010
2022-09-20T04:36:10.086Z,102010
2022-09-20T04:37:01.579Z,102010
2022-09-20T04:38:01.986Z,102010
2022-09-20T04:39:10.083Z,102010
2022-09-20T04:40:03.452Z,102010
2022-09-20T04:41:10.094Z,102010
2022-09-20T04:42:10.095Z,102010
2022-09-20T04:43:10.089Z,102010
2022-09-20T04:44:03.383Z,102010
2022-09-20T04:45:10.087Z,102010
2022-09-20T04:46:10.155Z,102010
2022-09-20T04:47:10.086Z,102010
2022-09-20T04:48:10.086Z,102010
2022-09-20T04:49:01.137Z,102020
2022-09-20T04:50:10.091Z,102020
2022-09-20T04:51:01.142Z,102020
2022-09-20T04:55:07.486Z,102020
2022-09-20T04:56:03.113Z,102020
2022-09-20T04:57:10.087Z,102020
2022-09-20T04:58:10.087Z,102020
2022-09-20T05:10:00.159Z,102030
2022-09-20T05:11:03.398Z,102030
2022-09-20T05:15:10.108Z,102030
2022-09-20T05:16:07.237Z,102030
2022-09-20T05:17:03.499Z,102030
2022-09-20T05:24:00.137Z,102030
2022-09-20T05:25:00.138Z,102030
2022-09-20T05:26:00.133Z,102030
2022-09-20T05:28:10.090Z,102030
2022-09-20T05:29:06.857Z,102030
2022-09-20T05:37:05.464Z,102040
2022-09-20T05:38:09.956Z,102040
2022-09-20T05:39:10.086Z,102040
2022-09-20T05:41:07.199Z,102040
2022-09-20T05:42:01.142Z,102040
2022-09-20T05:59:03.408Z,102060
2022-09-20T06:00:10.101Z,102070
2022-09-20T06:01:06.028Z,102070
2022-09-20T06:02:10.133Z,102070
2022-09-20T06:03:01.145Z,102070
2022-09-20T06:04:07.531Z,102070
2022-09-20T06:05:10.120Z,102070
2022-09-20T06:06:06.809Z,102070
2022-09-20T06:07:10.090Z,102070
2022-09-20T06:08:09.861Z,102070
2022-09-20T06:09:04.350Z,102070
2022-09-20T06:10:10.099Z,102070
2022-09-20T06:11:09.744Z,102070
2022-09-20T06:12:10.090Z,102070
2022-09-20T06:13:08.594Z,102070
2022-09-20T06:14:10.087Z,102070
2022-09-20T06:15:10.088Z,102070
2022-09-20T06:16:01.042Z,102070
2022-09-20T06:17:10.090Z,102070
2022-09-20T06:18:03.391Z,102070
2022-09-20T06:19:00.129Z,102070
2022-09-20T06:20:01.180Z,102070
2022-09-20T06:21:10.091Z,102080
2022-09-20T06:22:03.850Z,102080
2022-09-20T06:23:02.295Z,102080
2022-09-20T06:24:00.883Z,102080
2022-09-20T06:25:01.138Z,102080
2022-09-20T06:26:03.281Z,102080
2022-09-20T06:27:03.121Z,102080
2022-09-20T06:28:10.087Z,102080
2022-09-20T06:29:03.716Z,102080
2022-09-20T06:30:01.872Z,102080
2022-09-20T06:33:10.086Z,102080
2022-09-20T06:34:04.501Z,102080
2022-09-20T06:35:01.527Z,102080
2022-09-20T06:36:10.093Z,102080
2022-09-20T06:37:08.080Z,102080
2022-09-20T06:38:10.088Z,102080
2022-09-20T06:39:10.084Z,102080
2022-09-20T06:40:03.419Z,102080
2022-09-20T06:41:00.416Z,102080
2022-09-20T06:42:00.462Z,102080
2022-09-20T06:43:00.143Z,102080
2022-09-20T06:44:00.681Z,102080
2022-09-20T06:45:00.279Z,102080
2022-09-20T06:46:00.211Z,102080
2022-09-20T06:47:00.148Z,102080
2022-09-20T06:48:00.246Z,102080
2022-09-20T06:49:00.474Z,102090
2022-09-20T06:50:00.165Z,102090
2022-09-20T06:51:00.290Z,102080
2022-09-20T06:52:00.766Z,102080
2022-09-20T06:53:00.167Z,102080
2022-09-20T06:54:00.207Z,102080
2022-09-20T06:55:00.219Z,102080
2022-09-20T06:56:00.735Z,102080
2022-09-20T06:57:03.672Z,102080
2022-09-20T06:58:00.176Z,102080
2022-09-20T06:59:00.138Z,102080
2022-09-20T07:00:00.328Z,102080
2022-09-20T07:01:00.199Z,102090
2022-09-20T07:02:00.190Z,102090
2022-09-20T07:03:00.147Z,102090
2022-09-20T07:04:00.296Z,102090
2022-09-20T07:05:00.153Z,102090
2022-09-20T07:06:00.152Z,102090
2022-09-20T07:07:01.123Z,102090
2022-09-20T07:08:00.261Z,102090
2022-09-20T07:09:00.319Z,102090
2022-09-20T07:10:00.167Z,102090
2022-09-20T07:11:04.763Z,102090
2022-09-20T07:12:00.207Z,102090
2022-09-20T07:13:00.734Z,102090
2022-09-20T07:14:00.551Z,102090
2022-09-20T07:15:00.156Z,102090
2022-09-20T07:16:04.170Z,102090
2022-09-20T07:17:00.159Z,102090
2022-09-20T07:18:00.192Z,102090
2022-09-20T07:19:00.148Z,102100
2022-09-20T07:20:00.250Z,102100
2022-09-20T07:21:00.483Z,102100
2022-09-20T07:22:00.156Z,102100
2022-09-20T07:23:00.180Z,102100
2022-09-20T07:24:00.248Z,102100
2022-09-20T07:25:00.140Z,102100
2022-09-20T07:26:00.145Z,102100
2022-09-20T07:27:01.152Z,102100
2022-09-20T07:28:00.202Z,102100
2022-09-20T07:29:00.524Z,102100
2022-09-20T07:30:00.177Z,102100
2022-09-20T07:31:00.194Z,102100
2022-09-20T07:32:00.294Z,102100
2022-09-20T07:33:00.141Z,102100
2022-09-20T07:34:00.145Z,102100
2022-09-20T07:35:00.155Z,102110
2022-09-20T07:36:00.221Z,102110
2022-09-20T07:37:00.162Z,102110
2022-09-20T07:38:00.147Z,102110
2022-09-20T07:39:00.150Z,102110
2022-09-20T07:40:00.340Z,102110
2022-09-20T07:41:01.296Z,102110
2022-09-20T07:42:00.141Z,102110
2022-09-20T07:43:00.155Z,102110
2022-09-20T07:44:00.260Z,102110
2022-09-20T07:45:00.153Z,102110
2022-09-20T07:46:00.322Z,102110
2022-09-20T07:47:00.147Z,102110
2022-09-20T07:49:00.155Z,102110
2022-09-20T07:50:00.273Z,102110
2022-09-20T07:51:03.137Z,102110
2022-09-20T07:52:00.264Z,102110
2022-09-20T07:53:00.341Z,102110
2022-09-20T07:54:00.163Z,102110
2022-09-20T07:55:00.186Z,102110
2022-09-20T07:56:01.221Z,102110
2022-09-20T07:57:00.147Z,102110
2022-09-20T07:58:00.151Z,102110
2022-09-20T07:59:00.145Z,102110
2022-09-20T08:00:00.230Z,102110
2022-09-20T08:01:02.716Z,102110
2022-09-20T08:02:00.216Z,102110
2022-09-20T08:03:00.148Z,102120
2022-09-20T08:04:00.266Z,102120
2022-09-20T08:05:00.157Z,102120
2022-09-20T08:06:02.852Z,102120
2022-09-20T08:07:00.147Z,102120
2022-09-20T08:08:00.228Z,102120
2022-09-20T08:09:00.197Z,102120
2022-09-20T08:10:00.224Z,102120
2022-09-20T08:11:01.172Z,102120
2022-09-20T08:14:05.210Z,102120
2022-09-20T08:14:05.333Z,102120
2022-09-20T08:15:00.163Z,102120
2022-09-20T08:16:01.441Z,102120
2022-09-20T08:17:00.252Z,102120
2022-09-20T08:18:00.154Z,102120
2022-09-20T08:19:01.329Z,102120
2022-09-20T08:20:00.214Z,102120
2022-09-20T08:21:04.133Z,102120
2022-09-20T08:22:00.153Z,102120
2022-09-20T08:23:21.976Z,102120
2022-09-20T08:24:00.306Z,102120
2022-09-20T08:25:00.151Z,102120
2022-09-20T08:26:00.163Z,102120
2022-09-20T08:27:00.150Z,102120
2022-09-20T08:28:00.237Z,102120
2022-09-20T08:29:00.203Z,102120
2022-09-20T08:30:00.181Z,102120
2022-09-20T08:31:01.121Z,102120
2022-09-20T08:32:00.276Z,102120
2022-09-20T08:33:02.130Z,102130
2022-09-20T08:34:00.613Z,102130
2022-09-20T08:35:00.145Z,102120
2022-09-20T08:36:00.235Z,102120
2022-09-20T08:37:00.142Z,102130
2022-09-20T08:39:57.302Z,102130
2022-09-20T08:40:00.487Z,102130
2022-09-20T08:41:03.727Z,102130
2022-09-20T08:42:01.136Z,102130
2022-09-20T08:43:00.474Z,102130
2022-09-20T08:44:10.095Z,102130
2022-09-20T08:45:02.585Z,102130
2022-09-20T08:46:05.407Z,102130
2022-09-20T08:47:05.941Z,102140
2022-09-20T08:48:01.464Z,102140
2022-09-20T08:49:02.720Z,102140
2022-09-20T08:50:09.268Z,102140
2022-09-20T08:51:05.626Z,102140
2022-09-20T08:52:01.451Z,102140
2022-09-20T08:53:00.753Z,102140
2022-09-20T08:54:00.240Z,102140
2022-09-20T08:55:00.570Z,102140
2022-09-20T08:56:00.256Z,102140
2022-09-20T08:57:01.260Z,102140
2022-09-20T08:58:02.143Z,102140
2022-09-20T08:59:00.179Z,102140
2022-09-20T09:00:01.054Z,102140
2022-09-20T09:01:00.270Z,102140
2022-09-20T09:02:00.243Z,102140
2022-09-20T09:03:03.697Z,102140
2022-09-20T09:04:10.091Z,102140
2022-09-20T09:05:01.699Z,102140
2022-09-20T09:06:00.158Z,102140
2022-09-20T09:07:00.200Z,102140
2022-09-20T09:08:04.579Z,102140
2022-09-20T09:09:00.169Z,102140
2022-09-20T09:10:00.147Z,102140
2022-09-20T09:11:03.069Z,102140
2022-09-20T09:12:00.341Z,102140
2022-09-20T09:13:00.255Z,102140
2022-09-20T09:14:00.138Z,102140
2022-09-20T09:15:03.712Z,102140
2022-09-20T09:16:04.629Z,102140
2022-09-20T09:17:00.244Z,102140
2022-09-20T09:18:00.190Z,102140
2022-09-20T09:19:10.095Z,102140
2022-09-20T09:20:01.146Z,102140
2022-09-20T09:21:00.404Z,102150
2022-09-20T09:22:01.381Z,102150
2022-09-20T09:23:04.158Z,102150
2022-09-20T09:24:03.288Z,102150
2022-09-20T09:25:10.097Z,102150
2022-09-20T09:26:02.065Z,102150
2022-09-20T09:27:10.092Z,102160
2022-09-20T09:28:02.003Z,102160
2022-09-20T09:29:10.091Z,102160
2022-09-20T09:30:00.342Z,102160
2022-09-20T09:31:10.092Z,102160
2022-09-20T09:32:10.190Z,102170
2022-09-20T09:33:10.090Z,102170
2022-09-20T09:34:00.163Z,102170
2022-09-20T09:35:10.093Z,102170
2022-09-20T09:36:01.139Z,102170
2022-09-20T09:37:00.182Z,102170
2022-09-20T09:38:00.745Z,102170
2022-09-20T09:39:10.088Z,102170
2022-09-20T09:40:10.130Z,102170
2022-09-20T09:41:01.373Z,102170
2022-09-20T09:42:10.097Z,102170
2022-09-20T09:43:01.134Z,102170
2022-09-20T09:44:02.946Z,102170
2022-09-20T09:45:09.604Z,102160
2022-09-20T09:46:10.130Z,102170
2022-09-20T09:47:00.548Z,102170
2022-09-20T09:48:00.860Z,102170
2022-09-20T09:49:12.222Z,102170
2022-09-20T09:50:02.892Z,102170
2022-09-20T09:51:09.265Z,102170
2022-09-20T09:52:03.391Z,102170
2022-09-20T09:53:01.137Z,102170
2022-09-20T09:54:00.861Z,102170
2022-09-20T09:55:04.789Z,102170
2022-09-20T09:56:14.027Z,102170
2022-09-20T09:57:10.086Z,102170
2022-09-20T09:58:05.408Z,102170
2022-09-20T09:59:10.090Z,102170
2022-09-20T10:00:17.003Z,102170
2022-09-20T10:01:01.958Z,102170
2022-09-20T10:02:09.317Z,102170
2022-09-20T10:03:00.131Z,102170
2022-09-20T10:04:04.013Z,102170
2022-09-20T10:05:10.095Z,102170
2022-09-20T10:06:06.864Z,102170
2022-09-20T10:07:06.397Z,102170
2022-09-20T10:08:08.470Z,102170
2022-09-20T10:09:08.953Z,102170
2022-09-20T10:10:06.123Z,102170
2022-09-20T10:11:10.085Z,102170
2022-09-20T10:12:00.136Z,102170
2022-09-20T10:13:00.132Z,102160
2022-09-20T10:14:10.094Z,102160
2022-09-20T10:15:08.018Z,102160
2022-09-20T10:16:00.128Z,102160
2022-09-20T10:17:01.136Z,102160
2022-09-20T10:18:10.095Z,102160
2022-09-20T10:19:10.084Z,102160
2022-09-20T10:20:07.590Z,102160
2022-09-20T10:21:06.594Z,102160
2022-09-20T10:22:00.130Z,102160
2022-09-20T10:23:51.410Z,102160
2022-09-20T10:24:06.656Z,102160
2022-09-20T10:25:01.140Z,102160
2022-09-20T10:26:07.457Z,102160
2022-09-20T10:27:10.083Z,102160
2022-09-20T10:28:06.321Z,102160
2022-09-20T10:29:10.089Z,102160
2022-09-20T10:30:09.447Z,102160
2022-09-20T10:31:10.136Z,102160
2022-09-20T10:32:12.284Z,102160
2022-09-20T10:33:10.089Z,102160
2022-09-20T10:34:10.087Z,102160
2022-09-20T10:35:10.093Z,102160
2022-09-20T10:36:08.771Z,102160
2022-09-20T10:37:00.748Z,102160
2022-09-20T10:38:07.579Z,102160
2022-09-20T10:39:00.128Z,102150
2022-09-20T10:40:10.172Z,102160
2022-09-20T10:41:00.129Z,102160
2022-09-20T10:42:01.138Z,102160
2022-09-20T10:43:08.364Z,102160
2022-09-20T10:44:04.373Z,102160
2022-09-20T10:45:10.111Z,102160
2022-09-20T10:47:10.120Z,102160
2022-09-20T10:48:10.089Z,102160
2022-09-20T10:49:02.745Z,102160
2022-09-20T10:50:03.428Z,102160
2022-09-20T10:51:00.134Z,102150
2022-09-20T10:52:10.086Z,102160
2022-09-20T10:53:00.134Z,102160
2022-09-20T10:54:00.130Z,102160
2022-09-20T10:55:04.185Z,102160
2022-09-20T10:56:10.090Z,102160
2022-09-20T10:57:10.091Z,102160
2022-09-20T10:58:05.425Z,102160
2022-09-20T10:59:03.372Z,102160
2022-09-20T11:00:01.137Z,102160
2022-09-20T11:01:08.734Z,102160
2022-09-20T11:02:10.177Z,102160
2022-09-20T11:03:10.086Z,102160
2022-09-20T11:04:01.136Z,102160
2022-09-20T11:05:10.093Z,102160
2022-09-20T11:06:10.086Z,102160
2022-09-20T11:10:10.094Z,102170
2022-09-20T11:33:01.142Z,102180
2022-09-20T11:36:01.761Z,102180
2022-09-20T11:37:00.664Z,102190
2022-09-20T11:38:10.091Z,102190
2022-09-20T11:39:04.028Z,102190
2022-09-20T11:40:02.497Z,102190
2022-09-20T11:41:04.670Z,102180
2022-09-20T11:42:00.544Z,102180
2022-09-20T11:43:02.976Z,102190
2022-09-20T11:44:03.429Z,102190
2022-09-20T11:45:00.177Z,102180
2022-09-20T11:46:03.503Z,102180
2022-09-20T11:47:02.676Z,102180
2022-09-20T11:48:02.899Z,102180
2022-09-20T11:49:04.394Z,102190
2022-09-20T11:50:10.092Z,102180
2022-09-20T11:51:03.382Z,102180
2022-09-20T11:52:08.777Z,102180
2022-09-20T11:53:10.089Z,102180
2022-09-20T11:54:10.085Z,102180
2022-09-20T11:55:01.141Z,102180
2022-09-20T11:56:05.777Z,102180
2022-09-20T11:57:00.150Z,102180
2022-09-20T11:58:03.380Z,102180
2022-09-20T11:59:01.736Z,102180
2022-09-20T12:00:02.288Z,102180
2022-09-20T12:01:00.153Z,102190
2022-09-20T12:02:02.153Z,102190
2022-09-20T12:03:02.546Z,102180
2022-09-20T12:04:30.717Z,102180
2022-09-20T12:05:00.695Z,102180
2022-09-20T12:06:01.792Z,102180
2022-09-20T12:07:08.979Z,102170
2022-09-20T12:08:02.080Z,102170
2022-09-20T12:09:02.361Z,102170
2022-09-20T12:10:01.789Z,102170
2022-09-20T12:11:00.128Z,102170
2022-09-20T12:12:10.096Z,102160
2022-09-20T12:13:00.132Z,102160
2022-09-20T12:14:03.531Z,102160
2022-09-20T12:15:01.722Z,102160
2022-09-20T12:16:02.503Z,102160
2022-09-20T12:17:00.165Z,102160
2022-09-20T12:18:06.781Z,102160
2022-09-20T12:19:01.820Z,102160
2022-09-20T12:20:00.257Z,102160
2022-09-20T12:21:05.502Z,102160
2022-09-20T12:22:00.143Z,102160
2022-09-20T12:23:10.092Z,102160
2022-09-20T12:24:05.163Z,102160
2022-09-20T12:25:10.095Z,102160
2022-09-20T12:26:02.807Z,102160
2022-09-20T12:27:05.214Z,102160
2022-09-20T12:28:00.161Z,102160
2022-09-20T12:29:09.056Z,102160
2022-09-20T12:30:03.763Z,102160
2022-09-20T12:31:10.085Z,102160
2022-09-20T12:32:00.941Z,102160
2022-09-20T12:33:00.143Z,102160
2022-09-20T12:34:01.355Z,102160
2022-09-20T12:35:00.195Z,102160
2022-09-20T12:36:10.091Z,102160
2022-09-20T12:37:00.138Z,102160
2022-09-20T12:38:10.094Z,102160
2022-09-20T12:39:05.475Z,102160
2022-09-20T12:40:00.338Z,102160
2022-09-20T12:44:02.781Z,102150
2022-09-20T12:45:04.308Z,102150
2022-09-20T12:46:04.665Z,102150
2022-09-20T12:47:00.132Z,102140
2022-09-20T12:48:00.268Z,102140
2022-09-20T12:49:10.090Z,102150
2022-09-20T12:50:01.422Z,102150
2022-09-20T12:51:01.715Z,102150
2022-09-20T12:52:00.266Z,102150
2022-09-20T12:53:02.285Z,102140
2022-09-20T12:54:01.489Z,102140
2022-09-20T12:56:01.138Z,102140
2022-09-20T12:57:10.090Z,102140
2022-09-20T12:58:10.091Z,102140
2022-09-20T12:59:00.826Z,102140
2022-09-20T13:00:01.267Z,102140
2022-09-20T13:01:01.207Z,102130
2022-09-20T13:02:10.161Z,102130
2022-09-20T13:03:08.833Z,102140
2022-09-20T13:04:10.086Z,102140
2022-09-20T13:05:00.197Z,102140
2022-09-20T13:06:03.377Z,102140
2022-09-20T13:07:10.088Z,102140
2022-09-20T13:09:00.167Z,102130
2022-09-20T13:10:01.873Z,102130
2022-09-20T13:11:06.930Z,102140
2022-09-20T13:12:00.317Z,102140
2022-09-20T13:13:02.940Z,102140
2022-09-20T13:14:00.130Z,102140
2022-09-20T13:15:00.516Z,102140
2022-09-20T13:16:02.066Z,102140
2022-09-20T13:17:05.698Z,102140
2022-09-20T13:18:00.659Z,102140
2022-09-20T13:19:02.956Z,102140
2022-09-20T13:20:00.708Z,102140
2022-09-20T13:21:01.353Z,102140
2022-09-20T13:22:02.678Z,102140
2022-09-20T13:23:01.257Z,102130
2022-09-20T13:24:00.379Z,102130
2022-09-20T13:25:01.798Z,102140
2022-09-20T13:26:00.161Z,102140
2022-09-20T13:27:04.887Z,102130
2022-09-20T13:28:06.112Z,102130
2022-09-20T13:29:01.581Z,102140
2022-09-20T13:30:08.431Z,102140
2022-09-20T13:31:10.106Z,102140
2022-09-20T13:32:10.093Z,102130
2022-09-20T13:33:10.104Z,102130
2022-09-20T13:34:10.088Z,102130
2022-09-20T13:35:10.117Z,102130
2022-09-20T13:36:00.253Z,102130
2022-09-20T13:37:00.216Z,102130
2022-09-20T13:38:03.491Z,102130
2022-09-20T13:39:00.172Z,102130
2022-09-20T13:40:01.571Z,102130
2022-09-20T13:41:04.037Z,102140
2022-09-20T13:42:03.788Z,102140
2022-09-20T13:43:22.675Z,102140
2022-09-20T13:44:00.481Z,102140
2022-09-20T13:45:01.365Z,102140
2022-09-20T13:46:07.575Z,102140
2022-09-20T13:47:00.426Z,102140
2022-09-20T13:48:00.217Z,102140
2022-09-20T13:49:10.087Z,102140
2022-09-20T13:50:01.043Z,102140
2022-09-20T13:51:00.162Z,102140
2022-09-20T13:52:10.089Z,102140
2022-09-20T13:53:01.619Z,102140
2022-09-20T13:54:10.100Z,102140